Nuiqsut Airport Nuiqsut US
ICAO: PAQT
IATA:
Category: Medium
Scheduled Services:

Elevation: 38 ft
TransAlt. 0 ft.

Airport Communications:
ANCHORAGE CNTR:119.4
ASOS:122.5
CTAF:122.8
DEADHORSE RDO:122.5

PAQT Zoom In..

If you have problems with the map follow the link
https://www.worldairports.se/pages/airport.php?
ICAO=PAQT

Runways:

(A) RW 05 length 4589 ft width 100 ft
---- / hdg 49

(B) RW 23 length 4589 ft width 100 ft
---- / hdg 229

Location; PAQT
Day. 14 / Time. 17.53 Zulu
* Altimeter: 29.77
* Temperature: -23° c. 9.4°f.
* Wind from: 200° Speed 07 kn.
Dewpoint: -26° c.
Visibility: 10 Statute Miles.
Clouds: Clear (automated report).

PAQT 141753Z AUTO 20007KT 10SM CLR M23/M26 A2977 RMK AO2 SLP081 T12331261 11222 21239 TSNO PNO $


Wind From 200°
Speed 07 kn.

 
 
jpsmedia worldairports.se 2019   terms of use